sensor_id;sensor_type;location;lat;lon;timestamp;P1;durP1;ratioP1;P2;durP2;ratioP2
56381;SDS011;50261;51.150;4.470;2023-02-22T00:00:19;141.00;;;32.03;;
56381;SDS011;50261;51.150;4.470;2023-02-22T00:02:48;112.80;;;27.85;;
56381;SDS011;50261;51.150;4.470;2023-02-22T00:05:14;144.73;;;29.63;;
56381;SDS011;50261;51.150;4.470;2023-02-22T00:07:42;165.50;;;29.25;;
56381;SDS011;50261;51.150;4.470;2023-02-22T00:10:09;158.38;;;27.73;;
56381;SDS011;50261;51.150;4.470;2023-02-22T00:12:41;91.93;;;27.27;;
56381;SDS011;50261;51.150;4.470;2023-02-22T00:15:07;107.53;;;27.92;;
56381;SDS011;50261;51.150;4.470;2023-02-22T00:17:33;101.00;;;28.92;;
56381;SDS011;50261;51.150;4.470;2023-02-22T00:19:59;97.55;;;28.02;;
56381;SDS011;50261;51.150;4.470;2023-02-22T00:22:25;117.25;;;28.02;;
56381;SDS011;50261;51.150;4.470;2023-02-22T00:24:50;165.45;;;27.85;;
56381;SDS011;50261;51.150;4.470;2023-02-22T00:27:16;136.57;;;29.13;;
56381;SDS011;50261;51.150;4.470;2023-02-22T00:29:45;151.70;;;27.88;;
56381;SDS011;50261;51.150;4.470;2023-02-22T00:32:11;138.10;;;29.08;;
56381;SDS011;50261;51.150;4.470;2023-02-22T00:34:38;124.10;;;27.55;;
56381;SDS011;50261;51.150;4.470;2023-02-22T00:37:04;120.13;;;28.02;;
56381;SDS011;50261;51.150;4.470;2023-02-22T00:39:30;135.95;;;28.25;;
56381;SDS011;50261;51.150;4.470;2023-02-22T00:41:56;140.55;;;28.88;;
56381;SDS011;50261;51.150;4.470;2023-02-22T00:44:21;127.68;;;28.13;;
56381;SDS011;50261;51.150;4.470;2023-02-22T00:46:47;142.25;;;27.13;;
56381;SDS011;50261;51.150;4.470;2023-02-22T00:49:14;124.88;;;26.98;;
56381;SDS011;50261;51.150;4.470;2023-02-22T00:51:40;119.18;;;26.58;;
56381;SDS011;50261;51.150;4.470;2023-02-22T00:54:07;138.63;;;26.80;;
56381;SDS011;50261;51.150;4.470;2023-02-22T00:56:33;110.28;;;28.25;;
56381;SDS011;50261;51.150;4.470;2023-02-22T00:58:59;145.18;;;26.95;;
56381;SDS011;50261;51.150;4.470;2023-02-22T01:01:28;124.47;;;26.77;;
56381;SDS011;50261;51.150;4.470;2023-02-22T01:03:54;79.28;;;24.45;;
56381;SDS011;50261;51.150;4.470;2023-02-22T01:06:20;72.65;;;25.92;;
56381;SDS011;50261;51.150;4.470;2023-02-22T01:08:47;140.25;;;26.90;;
56381;SDS011;50261;51.150;4.470;2023-02-22T01:11:14;83.90;;;24.48;;
56381;SDS011;50261;51.150;4.470;2023-02-22T01:13:40;116.70;;;26.92;;
56381;SDS011;50261;51.150;4.470;2023-02-22T01:16:06;92.75;;;26.30;;
56381;SDS011;50261;51.150;4.470;2023-02-22T01:18:35;100.35;;;25.25;;
56381;SDS011;50261;51.150;4.470;2023-02-22T01:21:02;117.22;;;26.48;;
56381;SDS011;50261;51.150;4.470;2023-02-22T01:23:27;115.93;;;25.13;;
56381;SDS011;50261;51.150;4.470;2023-02-22T01:25:56;106.88;;;26.58;;
56381;SDS011;50261;51.150;4.470;2023-02-22T01:28:22;97.60;;;24.83;;
56381;SDS011;50261;51.150;4.470;2023-02-22T01:30:48;120.10;;;24.00;;
56381;SDS011;50261;51.150;4.470;2023-02-22T01:33:15;121.10;;;25.75;;
56381;SDS011;50261;51.150;4.470;2023-02-22T01:35:41;121.50;;;25.75;;
56381;SDS011;50261;51.150;4.470;2023-02-22T01:38:08;118.07;;;25.58;;
56381;SDS011;50261;51.150;4.470;2023-02-22T01:40:38;149.38;;;26.88;;
56381;SDS011;50261;51.150;4.470;2023-02-22T01:48:27;133.43;;;25.08;;
56381;SDS011;50261;51.150;4.470;2023-02-22T01:53:27;148.98;;;27.83;;
56381;SDS011;50261;51.150;4.470;2023-02-22T01:55:54;143.25;;;26.52;;
56381;SDS011;50261;51.150;4.470;2023-02-22T01:58:20;117.28;;;24.05;;
56381;SDS011;50261;51.150;4.470;2023-02-22T02:00:47;101.63;;;25.27;;
56381;SDS011;50261;51.150;4.470;2023-02-22T02:03:16;89.00;;;24.40;;
56381;SDS011;50261;51.150;4.470;2023-02-22T02:05:42;71.55;;;24.05;;
56381;SDS011;50261;51.150;4.470;2023-02-22T02:10:53;101.70;;;23.80;;
56381;SDS011;50261;51.150;4.470;2023-02-22T02:13:19;101.20;;;22.92;;
56381;SDS011;50261;51.150;4.470;2023-02-22T02:15:45;108.03;;;24.33;;
56381;SDS011;50261;51.150;4.470;2023-02-22T02:18:14;113.13;;;24.33;;
56381;SDS011;50261;51.150;4.470;2023-02-22T02:20:46;87.63;;;23.92;;
56381;SDS011;50261;51.150;4.470;2023-02-22T02:34:02;76.72;;;24.15;;
56381;SDS011;50261;51.150;4.470;2023-02-22T02:36:33;99.97;;;24.83;;
56381;SDS011;50261;51.150;4.470;2023-02-22T02:41:43;60.40;;;21.95;;
56381;SDS011;50261;51.150;4.470;2023-02-22T02:44:13;87.18;;;24.00;;
56381;SDS011;50261;51.150;4.470;2023-02-22T02:46:45;72.25;;;23.02;;
56381;SDS011;50261;51.150;4.470;2023-02-22T02:49:14;69.43;;;21.33;;
56381;SDS011;50261;51.150;4.470;2023-02-22T02:51:44;90.45;;;23.20;;
56381;SDS011;50261;51.150;4.470;2023-02-22T02:54:12;71.43;;;23.98;;
56381;SDS011;50261;51.150;4.470;2023-02-22T02:56:39;83.57;;;23.45;;
56381;SDS011;50261;51.150;4.470;2023-02-22T02:59:21;76.28;;;23.30;;
56381;SDS011;50261;51.150;4.470;2023-02-22T03:07:21;112.38;;;22.85;;
56381;SDS011;50261;51.150;4.470;2023-02-22T03:12:50;69.55;;;23.70;;
56381;SDS011;50261;51.150;4.470;2023-02-22T03:15:34;72.10;;;21.92;;
56381;SDS011;50261;51.150;4.470;2023-02-22T03:18:06;80.75;;;23.30;;
56381;SDS011;50261;51.150;4.470;2023-02-22T03:25:50;105.68;;;24.70;;
56381;SDS011;50261;51.150;4.470;2023-02-22T03:28:19;78.25;;;23.63;;
56381;SDS011;50261;51.150;4.470;2023-02-22T03:30:53;84.80;;;23.10;;
56381;SDS011;50261;51.150;4.470;2023-02-22T03:33:25;88.07;;;23.35;;
56381;SDS011;50261;51.150;4.470;2023-02-22T03:36:04;69.57;;;21.48;;
56381;SDS011;50261;51.150;4.470;2023-02-22T03:38:32;70.75;;;21.88;;
56381;SDS011;50261;51.150;4.470;2023-02-22T03:41:00;60.92;;;22.05;;
56381;SDS011;50261;51.150;4.470;2023-02-22T03:43:28;62.13;;;21.23;;
56381;SDS011;50261;51.150;4.470;2023-02-22T03:45:58;66.32;;;22.08;;
56381;SDS011;50261;51.150;4.470;2023-02-22T03:48:35;44.97;;;19.98;;
56381;SDS011;50261;51.150;4.470;2023-02-22T03:51:04;36.22;;;19.42;;
56381;SDS011;50261;51.150;4.470;2023-02-22T03:53:32;39.58;;;20.80;;
56381;SDS011;50261;51.150;4.470;2023-02-22T03:55:59;43.22;;;19.73;;
56381;SDS011;50261;51.150;4.470;2023-02-22T03:58:25;48.35;;;18.80;;
56381;SDS011;50261;51.150;4.470;2023-02-22T04:00:54;52.47;;;20.13;;
56381;SDS011;50261;51.150;4.470;2023-02-22T04:03:21;45.47;;;19.42;;
56381;SDS011;50261;51.150;4.470;2023-02-22T04:05:47;40.03;;;19.13;;
56381;SDS011;50261;51.150;4.470;2023-02-22T04:08:13;56.90;;;18.95;;
56381;SDS011;50261;51.150;4.470;2023-02-22T04:10:38;61.40;;;19.80;;
56381;SDS011;50261;51.150;4.470;2023-02-22T04:13:04;59.40;;;20.50;;
56381;SDS011;50261;51.150;4.470;2023-02-22T04:15:39;69.43;;;21.27;;
56381;SDS011;50261;51.150;4.470;2023-02-22T04:18:08;75.38;;;21.35;;
56381;SDS011;50261;51.150;4.470;2023-02-22T04:20:34;68.47;;;22.77;;
56381;SDS011;50261;51.150;4.470;2023-02-22T04:23:08;49.22;;;22.15;;
56381;SDS011;50261;51.150;4.470;2023-02-22T04:25:37;41.35;;;19.95;;
56381;SDS011;50261;51.150;4.470;2023-02-22T04:28:09;75.88;;;20.67;;
56381;SDS011;50261;51.150;4.470;2023-02-22T04:30:47;70.63;;;20.90;;
56381;SDS011;50261;51.150;4.470;2023-02-22T04:33:15;38.25;;;20.17;;
56381;SDS011;50261;51.150;4.470;2023-02-22T04:35:41;48.33;;;19.45;;
56381;SDS011;50261;51.150;4.470;2023-02-22T04:38:07;65.32;;;20.48;;
56381;SDS011;50261;51.150;4.470;2023-02-22T04:40:34;73.60;;;21.73;;
56381;SDS011;50261;51.150;4.470;2023-02-22T04:43:00;61.58;;;18.58;;
56381;SDS011;50261;51.150;4.470;2023-02-22T04:45:26;41.75;;;17.83;;
56381;SDS011;50261;51.150;4.470;2023-02-22T04:47:52;44.17;;;18.70;;
56381;SDS011;50261;51.150;4.470;2023-02-22T04:50:18;33.75;;;18.35;;
56381;SDS011;50261;51.150;4.470;2023-02-22T04:52:44;34.50;;;19.30;;
56381;SDS011;50261;51.150;4.470;2023-02-22T04:55:10;30.85;;;17.58;;
56381;SDS011;50261;51.150;4.470;2023-02-22T04:57:36;41.58;;;18.55;;
56381;SDS011;50261;51.150;4.470;2023-02-22T05:00:03;30.20;;;18.33;;
56381;SDS011;50261;51.150;4.470;2023-02-22T05:02:30;30.77;;;17.77;;
56381;SDS011;50261;51.150;4.470;2023-02-22T05:04:56;34.35;;;18.38;;
56381;SDS011;50261;51.150;4.470;2023-02-22T05:07:21;35.85;;;18.20;;
56381;SDS011;50261;51.150;4.470;2023-02-22T05:09:47;37.78;;;19.35;;
56381;SDS011;50261;51.150;4.470;2023-02-22T05:12:13;42.05;;;18.80;;
56381;SDS011;50261;51.150;4.470;2023-02-22T05:14:39;63.22;;;21.05;;
56381;SDS011;50261;51.150;4.470;2023-02-22T05:17:05;45.55;;;19.65;;
56381;SDS011;50261;51.150;4.470;2023-02-22T05:19:31;57.65;;;21.38;;
56381;SDS011;50261;51.150;4.470;2023-02-22T05:21:57;51.05;;;19.65;;
56381;SDS011;50261;51.150;4.470;2023-02-22T05:24:23;46.70;;;20.50;;
56381;SDS011;50261;51.150;4.470;2023-02-22T05:26:49;69.43;;;21.02;;
56381;SDS011;50261;51.150;4.470;2023-02-22T05:29:15;67.15;;;20.30;;
56381;SDS011;50261;51.150;4.470;2023-02-22T05:31:41;51.85;;;20.80;;
56381;SDS011;50261;51.150;4.470;2023-02-22T05:34:07;49.35;;;19.80;;
56381;SDS011;50261;51.150;4.470;2023-02-22T05:36:33;60.75;;;19.95;;
56381;SDS011;50261;51.150;4.470;2023-02-22T05:38:58;56.33;;;20.58;;
56381;SDS011;50261;51.150;4.470;2023-02-22T05:41:24;51.88;;;19.70;;
56381;SDS011;50261;51.150;4.470;2023-02-22T05:43:50;85.63;;;20.98;;
56381;SDS011;50261;51.150;4.470;2023-02-22T05:46:16;71.45;;;20.83;;
56381;SDS011;50261;51.150;4.470;2023-02-22T05:48:41;49.10;;;19.63;;
56381;SDS011;50261;51.150;4.470;2023-02-22T05:51:07;44.00;;;20.50;;
56381;SDS011;50261;51.150;4.470;2023-02-22T05:53:34;39.95;;;18.48;;
56381;SDS011;50261;51.150;4.470;2023-02-22T05:56:00;39.33;;;19.65;;
56381;SDS011;50261;51.150;4.470;2023-02-22T05:58:25;27.75;;;18.85;;
56381;SDS011;50261;51.150;4.470;2023-02-22T06:00:51;27.65;;;17.63;;
56381;SDS011;50261;51.150;4.470;2023-02-22T06:03:17;24.67;;;16.40;;
56381;SDS011;50261;51.150;4.470;2023-02-22T06:05:43;26.17;;;16.70;;
56381;SDS011;50261;51.150;4.470;2023-02-22T06:08:08;24.35;;;16.80;;
56381;SDS011;50261;51.150;4.470;2023-02-22T06:10:34;32.83;;;17.42;;
56381;SDS011;50261;51.150;4.470;2023-02-22T06:13:00;39.47;;;18.48;;
56381;SDS011;50261;51.150;4.470;2023-02-22T06:15:26;30.63;;;17.45;;
56381;SDS011;50261;51.150;4.470;2023-02-22T06:17:53;26.77;;;16.85;;
56381;SDS011;50261;51.150;4.470;2023-02-22T06:20:20;29.15;;;17.75;;
56381;SDS011;50261;51.150;4.470;2023-02-22T06:22:47;31.65;;;17.60;;
56381;SDS011;50261;51.150;4.470;2023-02-22T06:25:14;24.38;;;17.10;;
56381;SDS011;50261;51.150;4.470;2023-02-22T06:27:40;24.00;;;15.38;;
56381;SDS011;50261;51.150;4.470;2023-02-22T06:30:06;23.38;;;16.13;;
56381;SDS011;50261;51.150;4.470;2023-02-22T06:32:32;25.27;;;16.08;;
56381;SDS011;50261;51.150;4.470;2023-02-22T06:34:57;20.67;;;15.32;;
56381;SDS011;50261;51.150;4.470;2023-02-22T06:37:23;23.90;;;16.60;;
56381;SDS011;50261;51.150;4.470;2023-02-22T06:39:49;20.88;;;15.75;;
56381;SDS011;50261;51.150;4.470;2023-02-22T06:42:14;22.33;;;15.93;;
56381;SDS011;50261;51.150;4.470;2023-02-22T06:44:40;21.98;;;15.77;;
56381;SDS011;50261;51.150;4.470;2023-02-22T06:47:06;19.75;;;14.57;;
56381;SDS011;50261;51.150;4.470;2023-02-22T06:49:31;23.10;;;17.05;;
56381;SDS011;50261;51.150;4.470;2023-02-22T06:51:57;23.33;;;15.90;;
56381;SDS011;50261;51.150;4.470;2023-02-22T06:54:23;22.80;;;15.70;;
56381;SDS011;50261;51.150;4.470;2023-02-22T06:56:49;21.75;;;15.73;;
56381;SDS011;50261;51.150;4.470;2023-02-22T06:59:15;25.52;;;16.20;;
56381;SDS011;50261;51.150;4.470;2023-02-22T07:01:41;22.08;;;15.23;;
56381;SDS011;50261;51.150;4.470;2023-02-22T07:04:07;22.92;;;15.65;;
56381;SDS011;50261;51.150;4.470;2023-02-22T07:06:33;23.92;;;15.82;;
56381;SDS011;50261;51.150;4.470;2023-02-22T07:08:58;23.80;;;15.80;;
56381;SDS011;50261;51.150;4.470;2023-02-22T07:11:25;21.02;;;15.20;;
56381;SDS011;50261;51.150;4.470;2023-02-22T07:13:51;21.85;;;15.80;;
56381;SDS011;50261;51.150;4.470;2023-02-22T07:16:16;20.85;;;14.40;;
56381;SDS011;50261;51.150;4.470;2023-02-22T07:18:42;23.65;;;15.57;;
56381;SDS011;50261;51.150;4.470;2023-02-22T07:21:08;19.45;;;14.27;;
56381;SDS011;50261;51.150;4.470;2023-02-22T07:23:34;20.30;;;14.25;;
56381;SDS011;50261;51.150;4.470;2023-02-22T07:26:01;20.83;;;14.40;;
56381;SDS011;50261;51.150;4.470;2023-02-22T07:28:27;24.77;;;14.07;;
56381;SDS011;50261;51.150;4.470;2023-02-22T07:30:53;19.60;;;14.18;;
56381;SDS011;50261;51.150;4.470;2023-02-22T07:33:18;20.60;;;14.00;;
56381;SDS011;50261;51.150;4.470;2023-02-22T07:35:48;17.08;;;12.88;;
56381;SDS011;50261;51.150;4.470;2023-02-22T07:38:14;16.10;;;12.90;;
56381;SDS011;50261;51.150;4.470;2023-02-22T07:40:40;18.77;;;13.75;;
56381;SDS011;50261;51.150;4.470;2023-02-22T07:43:13;22.52;;;13.30;;
56381;SDS011;50261;51.150;4.470;2023-02-22T07:45:39;18.90;;;13.03;;
56381;SDS011;50261;51.150;4.470;2023-02-22T07:48:05;19.50;;;12.77;;
56381;SDS011;50261;51.150;4.470;2023-02-22T07:50:31;18.00;;;13.13;;
56381;SDS011;50261;51.150;4.470;2023-02-22T07:52:58;16.05;;;12.82;;
56381;SDS011;50261;51.150;4.470;2023-02-22T07:55:25;17.45;;;13.60;;
56381;SDS011;50261;51.150;4.470;2023-02-22T07:57:52;18.98;;;12.25;;
56381;SDS011;50261;51.150;4.470;2023-02-22T08:00:26;18.15;;;12.73;;
56381;SDS011;50261;51.150;4.470;2023-02-22T08:02:53;18.50;;;11.80;;
56381;SDS011;50261;51.150;4.470;2023-02-22T08:05:19;15.77;;;11.65;;
56381;SDS011;50261;51.150;4.470;2023-02-22T08:07:45;16.15;;;11.60;;
56381;SDS011;50261;51.150;4.470;2023-02-22T08:10:12;18.13;;;11.43;;
56381;SDS011;50261;51.150;4.470;2023-02-22T08:12:38;13.48;;;10.30;;
56381;SDS011;50261;51.150;4.470;2023-02-22T08:15:06;20.27;;;11.68;;
56381;SDS011;50261;51.150;4.470;2023-02-22T08:17:32;15.40;;;11.25;;
56381;SDS011;50261;51.150;4.470;2023-02-22T08:19:57;16.05;;;11.63;;
56381;SDS011;50261;51.150;4.470;2023-02-22T08:22:23;18.38;;;11.98;;
56381;SDS011;50261;51.150;4.470;2023-02-22T08:24:49;15.05;;;11.93;;
56381;SDS011;50261;51.150;4.470;2023-02-22T08:27:36;17.92;;;11.80;;
56381;SDS011;50261;51.150;4.470;2023-02-22T08:30:02;17.02;;;11.13;;
56381;SDS011;50261;51.150;4.470;2023-02-22T08:32:28;14.30;;;11.43;;
56381;SDS011;50261;51.150;4.470;2023-02-22T08:34:54;14.30;;;10.98;;
56381;SDS011;50261;51.150;4.470;2023-02-22T08:37:20;14.50;;;10.70;;
56381;SDS011;50261;51.150;4.470;2023-02-22T08:39:48;13.68;;;10.23;;
56381;SDS011;50261;51.150;4.470;2023-02-22T08:42:14;16.50;;;11.10;;
56381;SDS011;50261;51.150;4.470;2023-02-22T08:44:40;15.25;;;11.32;;
56381;SDS011;50261;51.150;4.470;2023-02-22T08:47:06;14.75;;;11.45;;
56381;SDS011;50261;51.150;4.470;2023-02-22T08:49:32;13.90;;;10.38;;
56381;SDS011;50261;51.150;4.470;2023-02-22T08:51:58;14.50;;;10.02;;
56381;SDS011;50261;51.150;4.470;2023-02-22T08:54:23;14.40;;;10.60;;
56381;SDS011;50261;51.150;4.470;2023-02-22T08:56:49;12.63;;;10.15;;
56381;SDS011;50261;51.150;4.470;2023-02-22T08:59:15;14.60;;;10.57;;
56381;SDS011;50261;51.150;4.470;2023-02-22T09:01:41;16.50;;;10.38;;
56381;SDS011;50261;51.150;4.470;2023-02-22T09:04:06;12.73;;;9.95;;
56381;SDS011;50261;51.150;4.470;2023-02-22T09:06:32;12.73;;;9.77;;
56381;SDS011;50261;51.150;4.470;2023-02-22T09:08:58;14.27;;;9.45;;
56381;SDS011;50261;51.150;4.470;2023-02-22T09:11:24;12.98;;;10.02;;
56381;SDS011;50261;51.150;4.470;2023-02-22T09:13:49;16.83;;;9.70;;
56381;SDS011;50261;51.150;4.470;2023-02-22T09:16:15;14.43;;;10.82;;
56381;SDS011;50261;51.150;4.470;2023-02-22T09:18:41;15.48;;;10.82;;
56381;SDS011;50261;51.150;4.470;2023-02-22T09:21:07;14.52;;;10.68;;
56381;SDS011;50261;51.150;4.470;2023-02-22T09:23:32;18.60;;;10.75;;
56381;SDS011;50261;51.150;4.470;2023-02-22T09:25:59;13.77;;;10.88;;
56381;SDS011;50261;51.150;4.470;2023-02-22T09:28:28;17.15;;;10.63;;
56381;SDS011;50261;51.150;4.470;2023-02-22T09:30:54;17.25;;;10.60;;
56381;SDS011;50261;51.150;4.470;2023-02-22T09:33:20;17.33;;;11.55;;
56381;SDS011;50261;51.150;4.470;2023-02-22T09:35:46;16.42;;;11.65;;
56381;SDS011;50261;51.150;4.470;2023-02-22T09:38:14;14.73;;;11.05;;
56381;SDS011;50261;51.150;4.470;2023-02-22T09:41:01;18.35;;;11.10;;
56381;SDS011;50261;51.150;4.470;2023-02-22T09:43:33;14.05;;;9.90;;
56381;SDS011;50261;51.150;4.470;2023-02-22T09:46:03;16.92;;;11.18;;
56381;SDS011;50261;51.150;4.470;2023-02-22T09:48:32;16.88;;;11.90;;
56381;SDS011;50261;51.150;4.470;2023-02-22T09:50:58;17.38;;;11.80;;
56381;SDS011;50261;51.150;4.470;2023-02-22T09:53:27;14.88;;;11.10;;
56381;SDS011;50261;51.150;4.470;2023-02-22T09:55:57;15.90;;;11.13;;
56381;SDS011;50261;51.150;4.470;2023-02-22T09:58:25;18.05;;;11.38;;
56381;SDS011;50261;51.150;4.470;2023-02-22T10:00:57;15.50;;;10.90;;
56381;SDS011;50261;51.150;4.470;2023-02-22T10:05:53;15.10;;;10.93;;
56381;SDS011;50261;51.150;4.470;2023-02-22T10:08:21;17.25;;;11.20;;
56381;SDS011;50261;51.150;4.470;2023-02-22T10:10:53;17.27;;;11.13;;
56381;SDS011;50261;51.150;4.470;2023-02-22T10:21:07;16.85;;;12.07;;
56381;SDS011;50261;51.150;4.470;2023-02-22T10:23:39;19.17;;;11.93;;
56381;SDS011;50261;51.150;4.470;2023-02-22T10:28:41;16.05;;;12.20;;
56381;SDS011;50261;51.150;4.470;2023-02-22T10:31:08;15.32;;;11.55;;
56381;SDS011;50261;51.150;4.470;2023-02-22T10:33:37;17.67;;;11.30;;
56381;SDS011;50261;51.150;4.470;2023-02-22T10:36:04;18.77;;;12.30;;
56381;SDS011;50261;51.150;4.470;2023-02-22T10:38:31;14.93;;;11.45;;
56381;SDS011;50261;51.150;4.470;2023-02-22T10:43:38;19.25;;;11.60;;
56381;SDS011;50261;51.150;4.470;2023-02-22T10:46:05;15.10;;;11.48;;
56381;SDS011;50261;51.150;4.470;2023-02-22T10:48:33;18.80;;;11.93;;
56381;SDS011;50261;51.150;4.470;2023-02-22T10:51:01;17.50;;;11.43;;
56381;SDS011;50261;51.150;4.470;2023-02-22T10:53:28;17.98;;;12.50;;
56381;SDS011;50261;51.150;4.470;2023-02-22T10:56:13;19.40;;;12.57;;
56381;SDS011;50261;51.150;4.470;2023-02-22T10:58:45;22.80;;;12.40;;
56381;SDS011;50261;51.150;4.470;2023-02-22T11:01:24;19.38;;;12.75;;
56381;SDS011;50261;51.150;4.470;2023-02-22T11:06:35;18.92;;;13.05;;
56381;SDS011;50261;51.150;4.470;2023-02-22T11:09:05;18.00;;;13.40;;
56381;SDS011;50261;51.150;4.470;2023-02-22T11:11:35;17.27;;;13.07;;
56381;SDS011;50261;51.150;4.470;2023-02-22T11:14:00;19.08;;;13.43;;
56381;SDS011;50261;51.150;4.470;2023-02-22T11:16:32;23.35;;;11.57;;
56381;SDS011;50261;51.150;4.470;2023-02-22T11:19:11;18.40;;;13.63;;
56381;SDS011;50261;51.150;4.470;2023-02-22T11:21:40;19.85;;;13.68;;
56381;SDS011;50261;51.150;4.470;2023-02-22T11:24:07;20.05;;;13.50;;
56381;SDS011;50261;51.150;4.470;2023-02-22T11:26:52;20.77;;;13.20;;
56381;SDS011;50261;51.150;4.470;2023-02-22T11:31:45;20.65;;;13.95;;
56381;SDS011;50261;51.150;4.470;2023-02-22T11:36:51;24.17;;;15.02;;
56381;SDS011;50261;51.150;4.470;2023-02-22T11:39:24;21.98;;;15.05;;
56381;SDS011;50261;51.150;4.470;2023-02-22T11:41:51;20.33;;;15.50;;
56381;SDS011;50261;51.150;4.470;2023-02-22T11:44:21;22.73;;;15.70;;
56381;SDS011;50261;51.150;4.470;2023-02-22T11:46:48;25.60;;;16.30;;
56381;SDS011;50261;51.150;4.470;2023-02-22T11:49:14;27.80;;;16.90;;
56381;SDS011;50261;51.150;4.470;2023-02-22T11:56:58;24.13;;;16.27;;
56381;SDS011;50261;51.150;4.470;2023-02-22T12:02:19;26.50;;;18.60;;
56381;SDS011;50261;51.150;4.470;2023-02-22T12:10:00;29.90;;;21.65;;
56381;SDS011;50261;51.150;4.470;2023-02-22T12:20:23;31.55;;;22.98;;
56381;SDS011;50261;51.150;4.470;2023-02-22T12:25:30;29.33;;;21.98;;
56381;SDS011;50261;51.150;4.470;2023-02-22T12:27:58;32.13;;;23.90;;
56381;SDS011;50261;51.150;4.470;2023-02-22T12:30:30;29.98;;;23.30;;
56381;SDS011;50261;51.150;4.470;2023-02-22T12:32:58;29.40;;;22.25;;
56381;SDS011;50261;51.150;4.470;2023-02-22T12:43:15;32.78;;;23.77;;
56381;SDS011;50261;51.150;4.470;2023-02-22T12:50:36;37.85;;;25.52;;
56381;SDS011;50261;51.150;4.470;2023-02-22T12:53:11;32.88;;;25.05;;
56381;SDS011;50261;51.150;4.470;2023-02-22T12:55:43;34.33;;;25.17;;
56381;SDS011;50261;51.150;4.470;2023-02-22T12:58:22;35.38;;;25.17;;
56381;SDS011;50261;51.150;4.470;2023-02-22T13:19:16;39.42;;;25.42;;
56381;SDS011;50261;51.150;4.470;2023-02-22T13:26:46;36.30;;;26.70;;
56381;SDS011;50261;51.150;4.470;2023-02-22T13:29:23;36.88;;;27.13;;
56381;SDS011;50261;51.150;4.470;2023-02-22T13:53:14;38.10;;;28.90;;
56381;SDS011;50261;51.150;4.470;2023-02-22T13:55:42;44.90;;;31.25;;
56381;SDS011;50261;51.150;4.470;2023-02-22T13:58:11;42.47;;;30.02;;
56381;SDS011;50261;51.150;4.470;2023-02-22T14:00:39;47.20;;;32.20;;
56381;SDS011;50261;51.150;4.470;2023-02-22T14:03:06;42.58;;;30.50;;
56381;SDS011;50261;51.150;4.470;2023-02-22T14:05:51;47.75;;;32.13;;
56381;SDS011;50261;51.150;4.470;2023-02-22T14:10:48;41.47;;;32.05;;
56381;SDS011;50261;51.150;4.470;2023-02-22T14:13:18;45.90;;;33.38;;
56381;SDS011;50261;51.150;4.470;2023-02-22T14:18:43;47.15;;;33.75;;
56381;SDS011;50261;51.150;4.470;2023-02-22T14:21:11;45.85;;;31.75;;
56381;SDS011;50261;51.150;4.470;2023-02-22T14:23:38;45.13;;;31.10;;
56381;SDS011;50261;51.150;4.470;2023-02-22T14:28:51;56.58;;;36.58;;
56381;SDS011;50261;51.150;4.470;2023-02-22T14:41:36;45.78;;;34.80;;
56381;SDS011;50261;51.150;4.470;2023-02-22T14:44:02;48.47;;;36.33;;
56381;SDS011;50261;51.150;4.470;2023-02-22T14:46:29;50.03;;;33.20;;
56381;SDS011;50261;51.150;4.470;2023-02-22T14:48:58;49.97;;;35.13;;
56381;SDS011;50261;51.150;4.470;2023-02-22T14:51:28;41.03;;;25.17;;
56381;SDS011;50261;51.150;4.470;2023-02-22T14:56:41;48.03;;;36.33;;
56381;SDS011;50261;51.150;4.470;2023-02-22T14:59:16;51.20;;;36.70;;
56381;SDS011;50261;51.150;4.470;2023-02-22T15:01:42;49.58;;;34.50;;
56381;SDS011;50261;51.150;4.470;2023-02-22T15:04:24;51.05;;;37.15;;
56381;SDS011;50261;51.150;4.470;2023-02-22T15:06:51;50.30;;;33.63;;
56381;SDS011;50261;51.150;4.470;2023-02-22T15:09:18;53.60;;;38.17;;
56381;SDS011;50261;51.150;4.470;2023-02-22T15:11:52;51.95;;;34.33;;
56381;SDS011;50261;51.150;4.470;2023-02-22T15:14:22;56.72;;;38.47;;
56381;SDS011;50261;51.150;4.470;2023-02-22T15:16:58;56.55;;;39.55;;
56381;SDS011;50261;51.150;4.470;2023-02-22T15:19:26;53.08;;;39.30;;
56381;SDS011;50261;51.150;4.470;2023-02-22T15:21:52;57.95;;;39.28;;
56381;SDS011;50261;51.150;4.470;2023-02-22T15:24:26;52.83;;;38.10;;
56381;SDS011;50261;51.150;4.470;2023-02-22T15:26:52;57.63;;;38.25;;
56381;SDS011;50261;51.150;4.470;2023-02-22T15:29:20;56.90;;;37.85;;
56381;SDS011;50261;51.150;4.470;2023-02-22T15:31:47;59.72;;;39.33;;
56381;SDS011;50261;51.150;4.470;2023-02-22T15:36:42;58.28;;;37.33;;
56381;SDS011;50261;51.150;4.470;2023-02-22T15:39:18;56.97;;;35.70;;
56381;SDS011;50261;51.150;4.470;2023-02-22T15:41:44;52.45;;;36.53;;
56381;SDS011;50261;51.150;4.470;2023-02-22T15:44:10;56.65;;;36.33;;
56381;SDS011;50261;51.150;4.470;2023-02-22T15:46:39;54.97;;;35.90;;
56381;SDS011;50261;51.150;4.470;2023-02-22T15:51:40;52.30;;;33.78;;
56381;SDS011;50261;51.150;4.470;2023-02-22T15:54:07;53.85;;;36.13;;
56381;SDS011;50261;51.150;4.470;2023-02-22T15:56:40;54.78;;;36.53;;
56381;SDS011;50261;51.150;4.470;2023-02-22T15:59:12;56.03;;;36.42;;
56381;SDS011;50261;51.150;4.470;2023-02-22T16:01:42;56.22;;;36.67;;
56381;SDS011;50261;51.150;4.470;2023-02-22T16:04:16;59.88;;;38.38;;
56381;SDS011;50261;51.150;4.470;2023-02-22T16:06:42;60.95;;;38.45;;
56381;SDS011;50261;51.150;4.470;2023-02-22T16:09:18;58.65;;;36.67;;
56381;SDS011;50261;51.150;4.470;2023-02-22T16:11:50;60.38;;;38.22;;
56381;SDS011;50261;51.150;4.470;2023-02-22T16:19:49;54.72;;;35.88;;
56381;SDS011;50261;51.150;4.470;2023-02-22T16:22:23;53.80;;;33.13;;
56381;SDS011;50261;51.150;4.470;2023-02-22T16:24:51;54.40;;;34.88;;
56381;SDS011;50261;51.150;4.470;2023-02-22T16:27:17;58.08;;;36.08;;
56381;SDS011;50261;51.150;4.470;2023-02-22T16:29:59;60.85;;;35.67;;
56381;SDS011;50261;51.150;4.470;2023-02-22T16:32:25;57.40;;;36.40;;
56381;SDS011;50261;51.150;4.470;2023-02-22T16:34:51;49.92;;;32.92;;
56381;SDS011;50261;51.150;4.470;2023-02-22T16:37:18;56.67;;;34.72;;
56381;SDS011;50261;51.150;4.470;2023-02-22T16:39:46;54.00;;;33.50;;
56381;SDS011;50261;51.150;4.470;2023-02-22T16:42:16;56.72;;;34.75;;
56381;SDS011;50261;51.150;4.470;2023-02-22T16:44:44;57.17;;;34.45;;
56381;SDS011;50261;51.150;4.470;2023-02-22T16:47:10;57.00;;;36.42;;
56381;SDS011;50261;51.150;4.470;2023-02-22T16:49:36;56.22;;;36.25;;
56381;SDS011;50261;51.150;4.470;2023-02-22T16:52:02;54.08;;;35.35;;
56381;SDS011;50261;51.150;4.470;2023-02-22T16:54:34;59.88;;;37.78;;
56381;SDS011;50261;51.150;4.470;2023-02-22T16:57:01;56.58;;;35.60;;
56381;SDS011;50261;51.150;4.470;2023-02-22T16:59:29;60.10;;;37.92;;
56381;SDS011;50261;51.150;4.470;2023-02-22T17:01:55;59.95;;;38.92;;
56381;SDS011;50261;51.150;4.470;2023-02-22T17:04:23;66.60;;;41.40;;
56381;SDS011;50261;51.150;4.470;2023-02-22T17:06:49;70.10;;;41.53;;
56381;SDS011;50261;51.150;4.470;2023-02-22T17:09:15;64.55;;;39.67;;
56381;SDS011;50261;51.150;4.470;2023-02-22T17:11:41;66.28;;;41.90;;
56381;SDS011;50261;51.150;4.470;2023-02-22T17:14:07;66.63;;;41.05;;
56381;SDS011;50261;51.150;4.470;2023-02-22T17:16:34;69.47;;;41.88;;
56381;SDS011;50261;51.150;4.470;2023-02-22T17:18:59;66.55;;;41.30;;